createdAt,value
2018-05-04T00:01:01.272Z,100424.27
2018-05-04T00:03:30.512Z,100425.59
2018-05-04T00:05:59.717Z,100427.52
2018-05-04T00:08:29.733Z,100432.78
2018-05-04T00:10:59.717Z,100432.54
2018-05-04T00:13:28.939Z,100438.43
2018-05-04T00:15:58.130Z,100442.45
2018-05-04T00:18:27.371Z,100436.73
2018-05-04T00:20:56.621Z,100442.62
2018-05-04T00:23:25.826Z,100445.95
2018-05-04T00:25:55.033Z,100443.53
2018-05-04T00:28:24.293Z,100441.35
2018-05-04T00:30:53.501Z,100446.17
2018-05-04T00:33:22.709Z,100444.98
2018-05-04T00:35:51.947Z,100452.16
2018-05-04T00:38:21.928Z,100455.18
2018-05-04T00:40:51.161Z,100456.20
2018-05-04T00:43:20.432Z,100460.61
2018-05-04T00:45:50.578Z,100453.19
2018-05-04T00:48:19.750Z,100448.13
2018-05-04T00:50:49.082Z,100460.95
2018-05-04T00:53:18.288Z,100464.03
2018-05-04T00:55:47.622Z,100464.42
2018-05-04T00:58:16.821Z,100459.34
2018-05-04T01:00:46.138Z,100459.06
2018-05-04T01:03:15.346Z,100465.27
2018-05-04T01:05:44.674Z,100477.69
2018-05-04T01:08:13.899Z,100484.20
2018-05-04T01:10:43.162Z,100488.84
2018-05-04T01:13:13.359Z,100487.55
2018-05-04T01:15:44.958Z,100492.25
2018-05-04T01:18:14.182Z,100494.19
2018-05-04T01:20:43.366Z,100496.09
2018-05-04T01:23:12.681Z,100495.14
2018-05-04T01:25:41.884Z,100500.93
2018-05-04T01:28:11.263Z,100502.91
2018-05-04T01:30:40.493Z,100501.96
2018-05-04T01:33:09.724Z,100491.08
2018-05-04T01:35:39.714Z,100495.41
2018-05-04T01:38:09.092Z,100497.98
2018-05-04T01:40:38.333Z,100501.13
2018-05-04T01:43:08.320Z,100496.48
2018-05-04T01:45:37.689Z,100496.55
2018-05-04T01:48:06.942Z,100506.48
2018-05-04T01:50:36.150Z,100502.47
2018-05-04T01:53:06.127Z,100500.64
2018-05-04T01:55:35.339Z,100499.35
2018-05-04T01:58:04.546Z,100491.34
2018-05-04T02:00:33.789Z,100500.86
2018-05-04T02:03:03.402Z,100502.67
2018-05-04T02:05:33.454Z,100507.19
2018-05-04T02:08:02.657Z,100514.89
2018-05-04T02:10:32.573Z,100526.39
2018-05-04T02:13:01.796Z,100526.64
2018-05-04T02:15:31.956Z,100526.75
2018-05-04T02:18:01.185Z,100514.48
2018-05-04T02:20:30.396Z,100516.30
2018-05-04T02:22:59.670Z,100518.89
2018-05-04T02:25:29.142Z,100509.05
2018-05-04T02:27:58.367Z,100515.48
2018-05-04T02:30:27.580Z,100511.70
2018-05-04T02:32:56.797Z,100510.53
2018-05-04T02:35:26.766Z,100509.34
2018-05-04T02:37:56.006Z,100510.63
2018-05-04T02:40:25.402Z,100514.14
2018-05-04T02:42:54.621Z,100520.23
2018-05-04T02:45:23.843Z,100516.58
2018-05-04T02:47:53.106Z,100511.44
2018-05-04T02:50:23.263Z,100507.72
2018-05-04T02:52:52.484Z,100510.11
2018-05-04T02:55:23.772Z,100507.75
2018-05-04T02:57:52.942Z,100508.09
2018-05-04T03:00:22.223Z,100501.28
2018-05-04T03:02:51.435Z,100504.13
2018-05-04T03:05:21.643Z,100496.98
2018-05-04T03:07:51.012Z,100495.48
2018-05-04T03:10:20.209Z,100494.91
2018-05-04T03:12:49.443Z,100489.66
2018-05-04T03:15:18.677Z,100485.25
2018-05-04T03:17:48.696Z,100480.00
2018-05-04T03:20:18.669Z,100483.52
2018-05-04T03:22:47.901Z,100482.70
2018-05-04T03:25:18.776Z,100482.70
2018-05-04T03:27:49.645Z,100482.34
2018-05-04T03:30:18.899Z,100476.19
2018-05-04T03:32:48.093Z,100476.88
2018-05-04T03:35:18.098Z,100477.64
2018-05-04T03:37:48.097Z,100469.41
2018-05-04T03:40:17.385Z,100467.30
2018-05-04T03:42:46.690Z,100470.11
2018-05-04T03:45:16.645Z,100471.42
2018-05-04T03:47:46.634Z,100463.73
2018-05-04T03:50:17.499Z,100463.95
2018-05-04T03:52:47.472Z,100456.92
2018-05-04T03:55:16.729Z,100466.09
2018-05-04T03:58:03.613Z,100470.14
2018-05-04T04:00:50.440Z,100486.31
2018-05-04T04:03:37.386Z,100487.38
2018-05-04T04:06:06.650Z,100482.02
2018-05-04T04:08:35.856Z,100488.14
2018-05-04T04:11:05.826Z,100497.17
2018-05-04T04:13:36.598Z,100495.97
2018-05-04T04:16:06.545Z,100493.78
2018-05-04T04:18:35.762Z,100493.20
2018-05-04T04:21:05.469Z,100493.34
2018-05-04T04:23:34.760Z,100494.28
2018-05-04T04:26:04.043Z,100497.33
2018-05-04T04:28:33.273Z,100504.21
2018-05-04T04:31:03.377Z,100508.34
2018-05-04T04:33:32.602Z,100506.05
2018-05-04T04:36:01.823Z,100507.10
2018-05-04T04:38:31.065Z,100515.16
2018-05-04T04:41:00.387Z,100513.23
2018-05-04T04:43:29.593Z,100514.95
2018-05-04T04:45:59.575Z,100526.55
2018-05-04T04:48:28.775Z,100527.09
2018-05-04T04:50:58.464Z,100523.84
2018-05-04T04:53:27.691Z,100533.94
2018-05-04T04:55:56.957Z,100533.11
2018-05-04T04:58:26.180Z,100538.29
2018-05-04T05:00:56.912Z,100539.97
2018-05-04T05:03:26.139Z,100540.34
2018-05-04T05:05:55.355Z,100543.52
2018-05-04T05:08:24.860Z,100545.22
2018-05-04T05:10:54.097Z,100551.56
2018-05-04T05:13:23.340Z,100548.39
2018-05-04T05:15:52.668Z,100556.96
2018-05-04T05:18:22.609Z,100551.27
2018-05-04T05:20:51.854Z,100556.88
2018-05-04T05:23:21.054Z,100559.90
2018-05-04T05:25:51.053Z,100560.22
2018-05-04T05:28:20.269Z,100562.80
2018-05-04T05:30:50.253Z,100558.34
2018-05-04T05:33:19.592Z,100565.95
2018-05-04T05:35:49.625Z,100572.36
2018-05-04T05:38:18.859Z,100573.47
2018-05-04T05:40:48.113Z,100575.92
2018-05-04T05:43:18.105Z,100576.32
2018-05-04T05:45:48.114Z,100577.67
2018-05-04T05:48:17.439Z,100582.67
2018-05-04T05:50:47.431Z,100587.27
2018-05-04T05:53:16.676Z,100590.48
2018-05-04T05:55:45.868Z,100590.43
2018-05-04T05:58:15.106Z,100586.70
2018-05-04T06:00:44.324Z,100586.39
2018-05-04T06:03:13.564Z,100599.55
2018-05-04T06:05:42.792Z,100602.39
2018-05-04T06:08:12.033Z,100598.02
2018-05-04T06:10:42.034Z,100588.63
2018-05-04T06:13:11.257Z,100596.67
2018-05-04T06:15:40.461Z,100591.38
2018-05-04T06:18:09.706Z,100593.73
2018-05-04T06:20:38.930Z,100589.70
2018-05-04T06:23:08.145Z,100590.63
2018-05-04T06:25:38.119Z,100588.18
2018-05-04T06:28:07.341Z,100593.11
2018-05-04T06:30:37.410Z,100591.73
2018-05-04T06:33:06.637Z,100592.39
2018-05-04T06:35:35.884Z,100588.73
2018-05-04T06:38:05.269Z,100596.87
2018-05-04T06:40:35.325Z,100602.91
2018-05-04T06:43:04.514Z,100604.34
2018-05-04T06:45:33.830Z,100603.13
2018-05-04T06:48:03.062Z,100604.55
2018-05-04T06:50:32.294Z,100607.67
2018-05-04T06:53:01.469Z,100605.97
2018-05-04T06:55:30.741Z,100610.76
2018-05-04T06:57:59.957Z,100603.51
2018-05-04T07:00:29.211Z,100609.89
2018-05-04T07:02:58.429Z,100604.03
2018-05-04T07:05:27.701Z,100609.02
2018-05-04T07:07:56.937Z,100611.84
2018-05-04T07:10:26.217Z,100617.01
2018-05-04T07:12:55.370Z,100615.75
2018-05-04T07:15:24.707Z,100615.38
2018-05-04T07:17:53.903Z,100607.05
2018-05-04T07:20:23.156Z,100611.78
2018-05-04T07:22:52.381Z,100616.24
2018-05-04T07:25:21.612Z,100610.47
2018-05-04T07:27:50.822Z,100612.92
2018-05-04T07:30:20.052Z,100608.09
2018-05-04T07:32:50.038Z,100610.59
2018-05-04T07:35:19.363Z,100617.00
2018-05-04T07:37:49.371Z,100615.61
2018-05-04T07:40:18.565Z,100625.26
2018-05-04T07:42:48.616Z,100622.27
2018-05-04T07:45:18.596Z,100616.61
2018-05-04T07:47:47.941Z,100616.93
2018-05-04T07:50:17.375Z,100616.76
2018-05-04T07:52:46.608Z,100618.12
2018-05-04T07:55:16.664Z,100611.39
2018-05-04T07:57:45.913Z,100598.95
2018-05-04T08:00:15.130Z,100614.70
2018-05-04T08:02:44.378Z,100617.02
2018-05-04T08:05:13.644Z,100610.64
2018-05-04T08:07:42.870Z,100611.62
2018-05-04T08:10:12.109Z,100613.74
2018-05-04T08:12:42.105Z,100616.17
2018-05-04T08:15:11.391Z,100617.55
2018-05-04T08:17:40.633Z,100611.58
2018-05-04T08:20:10.676Z,100619.25
2018-05-04T08:22:40.622Z,100619.02
2018-05-04T08:25:10.626Z,100614.39
2018-05-04T08:27:39.842Z,100618.76
2018-05-04T08:30:09.067Z,100618.72
2018-05-04T08:32:39.101Z,100622.91
2018-05-04T08:35:08.396Z,100624.88
2018-05-04T08:37:37.560Z,100612.38
2018-05-04T08:40:07.657Z,100619.98
2018-05-04T08:42:36.885Z,100613.89
2018-05-04T08:45:06.114Z,100618.41
2018-05-04T08:47:35.340Z,100610.61
2018-05-04T08:50:04.558Z,100612.39
2018-05-04T08:52:33.809Z,100612.05
2018-05-04T08:55:03.027Z,100622.36
2018-05-04T08:57:32.249Z,100617.61
2018-05-04T09:00:01.460Z,100612.92
2018-05-04T09:02:30.685Z,100611.99
2018-05-04T09:05:00.681Z,100611.65
2018-05-04T09:07:29.901Z,100611.00
2018-05-04T09:09:59.876Z,100616.06
2018-05-04T09:12:29.080Z,100607.92
2018-05-04T09:14:58.309Z,100609.98
2018-05-04T09:17:27.579Z,100612.39
2018-05-04T09:19:56.824Z,100614.62
2018-05-04T09:22:26.230Z,100612.88
2018-05-04T09:24:55.492Z,100603.86
2018-05-04T09:27:24.733Z,100598.59
2018-05-04T09:29:53.940Z,100600.25
2018-05-04T09:32:23.224Z,100602.12
2018-05-04T09:34:52.429Z,100596.05
2018-05-04T09:37:21.906Z,100598.53
2018-05-04T09:39:51.163Z,100601.91
2018-05-04T09:42:20.360Z,100600.76
2018-05-04T09:44:49.591Z,100598.42
2018-05-04T09:47:18.800Z,100595.56
2018-05-04T09:49:48.835Z,100600.21
2018-05-04T09:52:18.071Z,100594.97
2018-05-04T09:54:47.291Z,100595.38
2018-05-04T09:57:17.298Z,100593.37
2018-05-04T09:59:46.487Z,100588.47
2018-05-04T10:02:15.733Z,100595.38
2018-05-04T10:04:44.957Z,100593.56
2018-05-04T10:07:14.207Z,100589.95
2018-05-04T10:09:43.409Z,100587.28
2018-05-04T10:12:13.528Z,100584.11
2018-05-04T10:14:42.864Z,100572.39
2018-05-04T10:17:12.163Z,100583.33
2018-05-04T10:19:41.420Z,100578.45
2018-05-04T10:22:10.639Z,100585.63
2018-05-04T10:24:39.858Z,100584.41
2018-05-04T10:27:09.218Z,100580.56
2018-05-04T10:29:39.260Z,100586.39
2018-05-04T10:32:08.571Z,100587.22
2018-05-04T10:34:37.809Z,100574.67
2018-05-04T10:37:07.010Z,100564.19
2018-05-04T10:39:37.145Z,100564.65
2018-05-04T10:42:06.357Z,100575.09
2018-05-04T10:44:36.375Z,100571.88
2018-05-04T10:47:05.602Z,100575.44
2018-05-04T10:49:34.911Z,100582.77
2018-05-04T10:52:04.107Z,100579.81
2018-05-04T10:54:33.393Z,100576.13
2018-05-04T10:57:02.645Z,100577.14
2018-05-04T10:59:31.871Z,100578.50
2018-05-04T11:02:01.076Z,100571.22
2018-05-04T11:04:30.320Z,100569.02
2018-05-04T11:06:59.542Z,100574.64
2018-05-04T11:09:29.554Z,100569.98
2018-05-04T11:11:58.924Z,100573.78
2018-05-04T11:14:28.145Z,100573.48
2018-05-04T11:16:57.358Z,100564.72
2018-05-04T11:19:27.619Z,100566.13
2018-05-04T11:21:57.568Z,100574.46
2018-05-04T11:24:26.778Z,100564.05
2018-05-04T11:26:56.021Z,100569.98
2018-05-04T11:29:25.265Z,100568.70
2018-05-04T11:31:54.518Z,100578.48
2018-05-04T11:34:23.789Z,100582.20
2018-05-04T11:36:53.103Z,100575.23
2018-05-04T11:39:22.305Z,100589.51
2018-05-04T11:41:51.565Z,100584.82
2018-05-04T11:44:20.764Z,100581.32
2018-05-04T11:46:50.046Z,100577.59
2018-05-04T11:49:19.261Z,100577.02
2018-05-04T11:51:48.466Z,100589.12
2018-05-04T11:54:18.465Z,100586.55
2018-05-04T11:56:47.687Z,100581.98
2018-05-04T11:59:17.907Z,100582.95
2018-05-04T12:01:47.239Z,100590.31
2018-05-04T12:04:16.464Z,100583.09
2018-05-04T12:06:45.680Z,100574.95
2018-05-04T12:09:14.902Z,100581.23
2018-05-04T12:11:44.144Z,100572.59
2018-05-04T12:14:13.438Z,100579.98
2018-05-04T12:16:42.729Z,100583.38
2018-05-04T12:19:11.916Z,100600.47
2018-05-04T12:21:41.345Z,100596.55
2018-05-04T12:24:10.603Z,100605.27
2018-05-04T12:26:40.598Z,100602.76
2018-05-04T12:29:09.840Z,100596.06
2018-05-04T12:31:39.084Z,100588.98
2018-05-04T12:34:09.111Z,100602.98
2018-05-04T12:36:38.324Z,100598.71
2018-05-04T12:39:07.565Z,100597.24
2018-05-04T12:41:36.762Z,100592.64
2018-05-04T12:44:05.967Z,100601.32
2018-05-04T12:46:35.297Z,100603.77
2018-05-04T12:49:04.574Z,100615.77
2018-05-04T12:51:33.841Z,100605.34
2018-05-04T12:54:03.045Z,100602.19
2018-05-04T12:56:32.284Z,100589.98
2018-05-04T12:59:01.576Z,100592.20
2018-05-04T13:01:30.811Z,100598.05
2018-05-04T13:04:00.822Z,100586.91
2018-05-04T13:06:30.078Z,100586.09
2018-05-04T13:08:59.283Z,100599.37
2018-05-04T13:11:28.556Z,100589.30
2018-05-04T13:13:57.750Z,100588.72
2018-05-04T13:16:26.989Z,100583.28
2018-05-04T13:18:56.207Z,100598.52
2018-05-04T13:21:26.218Z,100584.03
2018-05-04T13:23:56.192Z,100581.78
2018-05-04T13:26:25.405Z,100580.71
2018-05-04T13:28:54.654Z,100591.98
2018-05-04T13:31:23.921Z,100579.43
2018-05-04T13:33:53.249Z,100575.13
2018-05-04T13:36:23.266Z,100574.32
2018-05-04T13:38:52.472Z,100570.56
2018-05-04T13:41:21.734Z,100573.83
2018-05-04T13:43:51.026Z,100570.13
2018-05-04T13:46:20.246Z,100582.54
2018-05-04T13:48:50.231Z,100581.29
2018-05-04T13:51:19.808Z,100579.86
2018-05-04T13:53:49.217Z,100568.98
2018-05-04T13:56:18.429Z,100580.43
2018-05-04T13:58:47.821Z,100571.93
2018-05-04T14:01:17.057Z,100576.22
2018-05-04T14:03:46.433Z,100572.26
2018-05-04T14:06:15.773Z,100568.03
2018-05-04T14:08:45.005Z,100576.55
2018-05-04T14:11:14.406Z,100571.91
2018-05-04T14:13:43.665Z,100567.03
2018-05-04T14:16:12.891Z,100568.65
2018-05-04T14:18:42.109Z,100568.13
2018-05-04T14:21:11.475Z,100567.70
2018-05-04T14:23:40.714Z,100562.99
2018-05-04T14:26:09.982Z,100554.82
2018-05-04T14:28:39.201Z,100559.74
2018-05-04T14:31:08.409Z,100552.06
2018-05-04T14:33:37.635Z,100557.91
2018-05-04T14:36:06.949Z,100548.54
2018-05-04T14:38:36.953Z,100549.36
2018-05-04T14:41:06.182Z,100556.22
2018-05-04T14:43:35.429Z,100546.86
2018-05-04T14:46:04.607Z,100553.02
2018-05-04T14:48:33.875Z,100545.22
2018-05-04T14:51:03.889Z,100549.92
2018-05-04T14:53:33.970Z,100564.64
2018-05-04T14:56:03.226Z,100548.76
2018-05-04T14:58:32.554Z,100554.11
2018-05-04T15:01:01.796Z,100560.33
2018-05-04T15:03:31.814Z,100566.41
2018-05-04T15:06:01.901Z,100553.47
2018-05-04T15:08:31.130Z,100557.20
2018-05-04T15:11:01.223Z,100547.23
2018-05-04T15:13:30.863Z,100543.83
2018-05-04T15:16:00.138Z,100547.30
2018-05-04T15:18:29.318Z,100546.58
2018-05-04T15:20:58.549Z,100561.63
2018-05-04T15:23:28.569Z,100556.84
2018-05-04T15:25:58.635Z,100553.30
2018-05-04T15:28:27.829Z,100556.26
2018-05-04T15:30:57.086Z,100551.71
2018-05-04T15:33:27.097Z,100557.25
2018-05-04T15:35:57.098Z,100553.73
2018-05-04T15:38:26.304Z,100558.36
2018-05-04T15:40:56.326Z,100560.41
2018-05-04T15:43:25.665Z,100557.89
2018-05-04T15:45:54.931Z,100557.83
2018-05-04T15:48:29.735Z,100558.16
2018-05-04T15:51:04.565Z,100554.16
2018-05-04T15:53:34.030Z,100558.42
2018-05-04T15:56:03.261Z,100556.11
2018-05-04T15:58:32.514Z,100555.45
2018-05-04T16:01:01.786Z,100562.89
2018-05-04T16:03:31.810Z,100548.97
2018-05-04T16:06:01.840Z,100556.52
2018-05-04T16:08:31.058Z,100552.97
2018-05-04T16:11:00.302Z,100552.44
2018-05-04T16:13:29.762Z,100561.14
2018-05-04T16:15:59.013Z,100559.22
2018-05-04T16:18:28.254Z,100556.98
2018-05-04T16:20:57.630Z,100562.55
2018-05-04T16:23:26.847Z,100563.47
2018-05-04T16:25:56.079Z,100556.46
2018-05-04T16:28:25.304Z,100558.63
2018-05-04T16:30:55.289Z,100553.62
2018-05-04T16:33:24.504Z,100573.81
2018-05-04T16:35:53.723Z,100565.84
2018-05-04T16:38:23.758Z,100566.03
2018-05-04T16:40:52.988Z,100568.12
2018-05-04T16:43:22.279Z,100565.16
2018-05-04T16:45:51.467Z,100567.77
2018-05-04T16:48:26.165Z,100566.77
2018-05-04T16:50:56.139Z,100568.24
2018-05-04T16:53:25.435Z,100563.02
2018-05-04T16:55:54.701Z,100564.27
2018-05-04T16:58:24.065Z,100576.19
2018-05-04T17:00:54.269Z,100575.95
2018-05-04T17:03:24.492Z,100569.56
2018-05-04T17:05:53.714Z,100572.01
2018-05-04T17:08:22.965Z,100575.06
2018-05-04T17:10:52.526Z,100575.67
2018-05-04T17:13:21.745Z,100578.79
2018-05-04T17:15:51.280Z,100575.06
2018-05-04T17:18:20.561Z,100579.22
2018-05-04T17:20:49.984Z,100577.41
2018-05-04T17:23:19.238Z,100572.31
2018-05-04T17:25:48.545Z,100568.59
2018-05-04T17:28:17.750Z,100583.34
2018-05-04T17:30:47.022Z,100578.45
2018-05-04T17:33:17.011Z,100583.83
2018-05-04T17:35:47.051Z,100573.28
2018-05-04T17:38:17.026Z,100574.56
2018-05-04T17:40:46.425Z,100576.70
2018-05-04T17:43:17.187Z,100581.80
2018-05-04T17:45:46.402Z,100585.79
2018-05-04T17:48:15.681Z,100583.53
2018-05-04T17:50:44.925Z,100581.47
2018-05-04T17:53:14.201Z,100583.64
2018-05-04T17:55:44.017Z,100591.61
2018-05-04T17:58:13.353Z,100594.30
2018-05-04T18:00:42.586Z,100599.14
2018-05-04T18:03:12.662Z,100595.50
2018-05-04T18:05:42.673Z,100599.11
2018-05-04T18:08:11.920Z,100606.81
2018-05-04T18:10:41.106Z,100607.44
2018-05-04T18:13:10.419Z,100607.54
2018-05-04T18:15:39.761Z,100615.05
2018-05-04T18:18:08.973Z,100613.32
2018-05-04T18:20:38.226Z,100610.50
2018-05-04T18:23:08.252Z,100625.62
2018-05-04T18:25:37.461Z,100629.05
2018-05-04T18:28:06.689Z,100622.19
2018-05-04T18:30:35.919Z,100626.25
2018-05-04T18:33:05.178Z,100624.47
2018-05-04T18:35:34.517Z,100627.02
2018-05-04T18:38:03.846Z,100635.92
2018-05-04T18:40:33.856Z,100633.86
2018-05-04T18:43:03.125Z,100635.55
2018-05-04T18:45:33.891Z,100640.99
2018-05-04T18:48:03.164Z,100638.75
2018-05-04T18:50:33.185Z,100636.48
2018-05-04T18:53:03.095Z,100644.22
2018-05-04T18:55:33.110Z,100642.12
2018-05-04T18:58:03.868Z,100645.92
2018-05-04T19:00:33.131Z,100647.63
2018-05-04T19:03:07.958Z,100651.98
2018-05-04T19:05:37.282Z,100657.34
2018-05-04T19:08:07.306Z,100665.06
2018-05-04T19:10:36.521Z,100666.12
2018-05-04T19:13:05.803Z,100673.09
2018-05-04T19:15:35.831Z,100677.37
2018-05-04T19:18:05.816Z,100672.88
2018-05-04T19:20:35.183Z,100682.71
2018-05-04T19:23:04.343Z,100691.66
2018-05-04T19:25:33.581Z,100687.54
2018-05-04T19:28:02.843Z,100695.56
2018-05-04T19:30:32.800Z,100699.06
2018-05-04T19:33:02.172Z,100701.55
2018-05-04T19:35:31.355Z,100711.11
2018-05-04T19:38:00.605Z,100700.00
2018-05-04T19:40:29.822Z,100706.25
2018-05-04T19:42:59.041Z,100708.64
2018-05-04T19:45:29.069Z,100711.31
2018-05-04T19:47:58.371Z,100716.08
2018-05-04T19:50:27.567Z,100706.59
2018-05-04T19:52:56.902Z,100713.85
2018-05-04T19:55:26.219Z,100714.80
2018-05-04T19:57:55.502Z,100715.02
2018-05-04T20:00:24.688Z,100716.59
2018-05-04T20:02:54.006Z,100710.83
2018-05-04T20:05:23.223Z,100716.62
2018-05-04T20:07:52.681Z,100715.25
2018-05-04T20:10:22.327Z,100716.73
2018-05-04T20:12:52.495Z,100720.03
2018-05-04T20:15:21.873Z,100722.14
2018-05-04T20:17:51.880Z,100715.16
2018-05-04T20:20:21.888Z,100725.10
2018-05-04T20:22:51.300Z,100724.19
2018-05-04T20:25:20.746Z,100726.92
2018-05-04T20:27:49.958Z,100727.57
2018-05-04T20:30:19.249Z,100728.82
2018-05-04T20:32:48.500Z,100725.29
2018-05-04T20:35:17.810Z,100728.16
2018-05-04T20:37:47.815Z,100732.73
2018-05-04T20:40:17.944Z,100728.41
2018-05-04T20:42:47.097Z,100726.52
2018-05-04T20:45:16.340Z,100725.99
2018-05-04T20:47:46.396Z,100728.97
2018-05-04T20:50:15.678Z,100721.05
2018-05-04T20:52:44.905Z,100717.03
2018-05-04T20:55:14.152Z,100725.63
2018-05-04T20:57:43.378Z,100727.47
2018-05-04T21:00:12.672Z,100728.77
2018-05-04T21:02:41.950Z,100732.12
2018-05-04T21:05:11.977Z,100729.13
2018-05-04T21:07:41.208Z,100736.56
2018-05-04T21:10:10.469Z,100730.42
2018-05-04T21:12:39.958Z,100724.23
2018-05-04T21:15:09.241Z,100728.67
2018-05-04T21:17:38.534Z,100734.34
2018-05-04T21:20:07.742Z,100732.98
2018-05-04T21:22:37.837Z,100733.89
2018-05-04T21:25:07.057Z,100735.43
2018-05-04T21:27:36.441Z,100735.30
2018-05-04T21:30:05.662Z,100745.92
2018-05-04T21:32:34.920Z,100742.03
2018-05-04T21:35:04.203Z,100735.70
2018-05-04T21:37:33.612Z,100740.36
2018-05-04T21:40:02.831Z,100741.59
2018-05-04T21:42:32.082Z,100741.09
2018-05-04T21:45:01.332Z,100746.48
2018-05-04T21:47:30.551Z,100751.27
2018-05-04T21:49:59.804Z,100748.14
2018-05-04T21:52:29.053Z,100746.80
2018-05-04T21:54:59.067Z,100748.06
2018-05-04T21:57:29.067Z,100751.21
2018-05-04T21:59:58.434Z,100747.68
2018-05-04T22:02:27.664Z,100749.93
2018-05-04T22:04:57.085Z,100747.61
2018-05-04T22:07:27.809Z,100745.84
2018-05-04T22:09:57.832Z,100749.78
2018-05-04T22:12:27.850Z,100746.25
2018-05-04T22:14:57.112Z,100746.91
2018-05-04T22:17:26.370Z,100749.05
2018-05-04T22:19:56.392Z,100751.55
2018-05-04T22:22:25.675Z,100748.71
2018-05-04T22:24:54.889Z,100750.97
2018-05-04T22:27:24.949Z,100747.62
2018-05-04T22:29:54.186Z,100750.51
2018-05-04T22:32:24.194Z,100753.59
2018-05-04T22:34:54.614Z,100755.69
2018-05-04T22:37:24.949Z,100759.84
2018-05-04T22:39:54.963Z,100763.78
2018-05-04T22:42:25.185Z,100765.92
2018-05-04T22:44:54.448Z,100761.17
2018-05-04T22:47:23.817Z,100764.14
2018-05-04T22:49:53.105Z,100762.86
2018-05-04T22:52:22.294Z,100763.58
2018-05-04T22:54:51.854Z,100763.66
2018-05-04T22:57:21.187Z,100753.70
2018-05-04T22:59:50.583Z,100756.61
2018-05-04T23:02:19.818Z,100762.30
2018-05-04T23:04:49.089Z,100768.20
2018-05-04T23:07:18.325Z,100776.38
2018-05-04T23:09:47.613Z,100778.33
2018-05-04T23:12:16.849Z,100782.74
2018-05-04T23:14:46.209Z,100787.36
2018-05-04T23:17:15.466Z,100783.45
2018-05-04T23:19:44.698Z,100780.23
2018-05-04T23:22:29.663Z,100778.91
2018-05-04T23:24:59.663Z,100777.55
2018-05-04T23:27:28.903Z,100771.12
2018-05-04T23:29:58.130Z,100765.84
2018-05-04T23:32:27.604Z,100764.75
2018-05-04T23:34:56.800Z,100765.61
2018-05-04T23:37:26.139Z,100769.18
2018-05-04T23:39:55.428Z,100765.87
2018-05-04T23:42:24.860Z,100764.59
2018-05-04T23:44:54.084Z,100763.89
2018-05-04T23:47:23.330Z,100758.98
2018-05-04T23:49:52.576Z,100765.39
2018-05-04T23:52:21.925Z,100770.30
2018-05-04T23:54:51.156Z,100768.11
2018-05-04T23:57:21.161Z,100762.95
2018-05-04T23:59:50.486Z,100772.95
